Time;durP1;ratioP1;P1;durP2;ratioP2;P2;SDS_P1;SDS_P2;PMS_P1;PMS_P2;Temp;Humidity;BMP_temperature;BMP_pressure;BME280_temperature;BME280_humidity;BME280_pressure;Samples;Min_cycle;Max_cycle;Signal;HPM_P1;HPM_P2
2024/01/29 00:02:16;;;;;;;1.97;0.80;;;;;;;-145.69;38.49;52315.66;5136130;27;20275;-78
2024/01/29 00:04:42;;;;;;;0.60;0.60;;;;;;;-145.69;38.74;52285.97;5134557;27;20830;-79
2024/01/29 00:07:12;;;;;;;0.60;0.60;;;;;;;-145.69;38.65;52291.91;5135410;27;20223;-79
2024/01/29 00:09:38;;;;;;;0.77;0.60;;;;;;;-145.69;37.82;52351.31;5134836;27;20205;-79
2024/01/29 00:12:05;;;;;;;1.23;0.80;;;;;;;-145.69;38.17;52289.91;5135426;27;20204;-79
2024/01/29 00:14:34;;;;;;;1.83;0.80;;;;;;;-145.69;38.18;52272.09;5135708;27;20208;-79
2024/01/29 00:17:02;;;;;;;0.60;0.60;;;;;;;-145.69;37.80;52289.91;5135384;27;20716;-78
2024/01/29 00:19:29;;;;;;;0.70;0.70;;;;;;;-145.69;38.93;52313.69;5135339;27;20797;-78
2024/01/29 00:21:55;;;;;;;1.17;0.70;;;;;;;-145.69;38.82;52276.06;5135514;27;20196;-79
2024/01/29 00:24:22;;;;;;;1.00;0.70;;;;;;;-145.69;38.62;52299.81;5134802;27;20212;-78
2024/01/29 00:26:51;;;;;;;1.53;0.60;;;;;;;-145.69;38.58;52293.88;5135462;27;20220;-78
2024/01/29 00:29:19;;;;;;;0.60;0.60;;;;;;;-145.69;37.96;52285.97;5135113;27;20200;-78
2024/01/29 00:31:47;;;;;;;0.53;0.50;;;;;;;-145.69;38.23;52319.63;5135370;27;20196;-78
2024/01/29 00:34:19;;;;;;;0.53;0.53;;;;;;;-145.69;37.55;52287.94;5133894;27;20634;-80
2024/01/29 00:36:46;;;;;;;0.70;0.70;;;;;;;-145.69;38.29;52303.78;5135366;27;20666;-80
2024/01/29 00:39:19;;;;;;;0.70;0.70;;;;;;;-145.69;37.80;52270.13;5134751;27;20193;-78
2024/01/29 00:41:45;;;;;;;0.73;0.73;;;;;;;-145.69;37.70;52307.75;5135266;27;20732;-79
2024/01/29 00:44:19;;;;;;;0.80;0.70;;;;;;;-145.69;38.14;52276.06;5135106;27;20196;-79
2024/01/29 00:46:46;;;;;;;1.23;0.70;;;;;;;-145.69;37.39;52289.91;5134716;27;20269;-79
2024/01/29 00:49:20;;;;;;;0.97;0.70;;;;;;;-145.69;37.50;52309.72;5134770;27;20208;-79
2024/01/29 00:51:49;;;;;;;0.80;0.60;;;;;;;-145.69;37.11;52266.16;5133588;27;20196;-79
2024/01/29 00:54:15;;;;;;;0.67;0.60;;;;;;;-145.69;37.11;52297.84;5134865;27;20211;-80
2024/01/29 00:56:44;;;;;;;0.63;0.63;;;;;;;-145.69;37.09;52282.00;5134803;27;20529;-80
2024/01/29 00:59:14;;;;;;;4.37;0.60;;;;;;;-145.69;37.51;52305.75;5134698;27;20287;-80
2024/01/29 01:01:42;;;;;;;0.83;0.67;;;;;;;-145.69;37.22;52266.16;5134635;27;20211;-79
2024/01/29 01:04:18;;;;;;;0.60;0.60;;;;;;;-145.69;36.73;52291.91;5134295;27;20242;-79
2024/01/29 01:06:48;;;;;;;1.47;0.67;;;;;;;-145.69;37.56;52276.06;5114160;28;20201;-78
2024/01/29 01:09:18;;;;;;;0.73;0.73;;;;;;;-145.69;37.57;52305.75;5131302;27;20265;-79
2024/01/29 01:11:46;;;;;;;0.70;0.70;;;;;;;-145.69;37.17;52280.00;5134657;27;20266;-78
2024/01/29 01:14:13;;;;;;;0.70;0.70;;;;;;;-145.69;37.11;52278.03;5134070;27;20201;-78
2024/01/29 01:16:42;;;;;;;1.33;0.80;;;;;;;-145.69;36.94;52282.00;5134615;27;20197;-79
2024/01/29 01:19:09;;;;;;;0.43;0.43;;;;;;;-145.69;37.63;52270.13;5134342;27;20287;-78
2024/01/29 01:21:37;;;;;;;1.47;0.70;;;;;;;-145.69;38.04;52305.75;5133984;27;20209;-78
2024/01/29 01:24:08;;;;;;;0.70;0.70;;;;;;;-145.69;36.62;52283.97;5133933;27;20208;-78
2024/01/29 01:26:36;;;;;;;0.90;0.70;;;;;;;-145.69;37.14;52278.03;5134154;27;20577;-78
2024/01/29 01:29:04;;;;;;;0.80;0.80;;;;;;;-145.69;37.58;52293.88;5133997;27;20686;-78
2024/01/29 01:31:36;;;;;;;0.57;0.57;;;;;;;-145.69;37.96;52268.13;5134344;27;20558;-78
2024/01/29 01:34:04;;;;;;;0.50;0.50;;;;;;;-145.69;37.95;52285.97;5133533;27;20279;-78
2024/01/29 01:36:31;;;;;;;0.43;0.43;;;;;;;-145.69;37.03;52283.97;5131971;27;20193;-79
2024/01/29 01:38:58;;;;;;;0.63;0.63;;;;;;;-145.69;36.50;52226.53;5134039;27;20261;-79
2024/01/29 01:41:31;;;;;;;0.60;0.60;;;;;;;-145.69;37.34;52301.81;5134092;27;20208;-79
2024/01/29 01:43:58;;;;;;;1.23;0.70;;;;;;;-145.69;37.76;52309.72;5134267;27;20196;-78
2024/01/29 01:46:26;;;;;;;0.70;0.70;;;;;;;-145.69;36.29;52293.88;5133884;27;20291;-78
2024/01/29 01:48:56;;;;;;;0.60;0.60;;;;;;;-145.69;36.19;52285.97;5133734;27;20591;-78
2024/01/29 01:51:26;;;;;;;0.70;0.70;;;;;;;-145.69;35.45;52282.00;5133455;27;20233;-78
2024/01/29 01:53:58;;;;;;;0.60;0.60;;;;;;;-145.69;35.57;52293.88;5133589;27;20245;-78
2024/01/29 01:56:25;;;;;;;0.67;0.67;;;;;;;-145.69;35.78;52266.16;5133782;27;20235;-79
2024/01/29 01:58:55;;;;;;;1.20;0.60;;;;;;;-145.69;35.52;52305.75;5133666;27;20189;-78
2024/01/29 02:01:24;;;;;;;0.60;0.60;;;;;;;-145.69;35.05;52270.13;5133765;27;20189;-79
2024/01/29 02:03:52;;;;;;;0.50;0.50;;;;;;;-145.69;35.10;52295.84;5133624;27;20257;-79
2024/01/29 02:06:19;;;;;;;0.83;0.60;;;;;;;-145.69;34.98;52270.13;5133586;27;20666;-78
2024/01/29 02:08:48;;;;;;;0.60;0.60;;;;;;;-145.69;36.45;52285.97;5133140;27;20687;-78
2024/01/29 02:11:15;;;;;;;0.50;0.50;;;;;;;-145.69;35.33;52228.53;5133885;27;20201;-78
2024/01/29 02:13:43;;;;;;;0.63;0.63;;;;;;;-145.69;35.29;52299.81;5133234;27;20204;-78
2024/01/29 02:16:13;;;;;;;0.80;0.80;;;;;;;-145.69;34.96;52256.25;5133043;27;20197;-78
2024/01/29 02:18:41;;;;;;;0.60;0.60;;;;;;;-145.69;36.78;52299.81;5133147;27;20207;-79
2024/01/29 02:21:08;;;;;;;0.73;0.73;;;;;;;-145.69;37.22;52252.28;5133413;27;20211;-78
2024/01/29 02:23:43;;;;;;;0.67;0.67;;;;;;;-145.69;36.45;52285.97;5132993;27;20230;-78
2024/01/29 02:26:11;;;;;;;0.40;0.40;;;;;;;-145.69;36.91;52272.09;5132606;27;20199;-78
2024/01/29 02:28:40;;;;;;;1.33;0.63;;;;;;;-145.69;36.83;52240.41;5133245;27;20230;-78
2024/01/29 02:31:08;;;;;;;0.53;0.50;;;;;;;-145.69;36.50;52268.13;5133411;27;20281;-79
2024/01/29 02:33:35;;;;;;;1.03;0.67;;;;;;;-145.69;36.82;52291.91;5136780;27;20220;-79
2024/01/29 02:36:01;;;;;;;0.60;0.60;;;;;;;-145.69;37.24;52278.03;5137400;27;20196;-78
2024/01/29 02:38:28;;;;;;;0.57;0.53;;;;;;;-145.69;37.44;52256.25;5137395;27;20560;-78
2024/01/29 02:40:56;;;;;;;0.50;0.50;;;;;;;-145.69;37.13;52278.03;5137564;27;20595;-78
2024/01/29 02:43:23;;;;;;;0.60;0.60;;;;;;;-145.69;36.82;52285.97;5137494;27;20271;-78
2024/01/29 02:45:50;;;;;;;0.57;0.57;;;;;;;-145.69;37.80;52252.28;5137019;27;20196;-79
2024/01/29 02:48:16;;;;;;;0.50;0.50;;;;;;;-145.69;36.74;52274.06;5136813;27;20244;-78
2024/01/29 02:50:46;;;;;;;0.60;0.60;;;;;;;-145.69;37.14;52282.00;5137402;27;20229;-78
2024/01/29 02:53:12;;;;;;;0.60;0.60;;;;;;;-145.69;37.01;52278.03;5137138;27;20226;-78
2024/01/29 02:55:42;;;;;;;0.60;0.60;;;;;;;-145.69;37.04;52291.91;5137210;27;20200;-79
2024/01/29 02:58:13;;;;;;;0.60;0.60;;;;;;;-145.69;37.24;52252.28;5136417;27;20292;-79
2024/01/29 03:00:40;;;;;;;0.83;0.70;;;;;;;-145.69;37.43;52278.03;5136761;27;20283;-79
2024/01/29 03:03:06;;;;;;;0.60;0.60;;;;;;;-145.69;36.60;52280.00;5136400;27;20216;-79
2024/01/29 03:05:36;;;;;;;0.70;0.70;;;;;;;-145.69;37.74;52282.00;5136673;27;20197;-79
2024/01/29 03:08:03;;;;;;;0.60;0.60;;;;;;;-145.69;36.83;52276.06;5137150;27;20224;-79
2024/01/29 03:10:30;;;;;;;1.30;0.83;;;;;;;-145.69;36.71;52311.69;5136965;27;20200;-79
2024/01/29 03:12:59;;;;;;;0.50;0.50;;;;;;;-145.69;37.06;52270.13;5137144;27;20257;-79
2024/01/29 03:15:28;;;;;;;0.60;0.60;;;;;;;-145.69;37.30;52260.22;5136156;27;20196;-79
2024/01/29 03:17:55;;;;;;;0.50;0.50;;;;;;;-145.69;37.20;52289.91;5116365;28;20211;-79
2024/01/29 03:20:21;;;;;;;0.73;0.60;;;;;;;-145.69;37.36;52293.88;5122687;27;20675;-79
2024/01/29 03:22:48;;;;;;;0.60;0.60;;;;;;;-145.69;38.49;52299.81;5136956;27;20196;-80
2024/01/29 03:25:16;;;;;;;3.20;0.83;;;;;;;-145.69;38.17;52276.06;5136929;27;20253;-79
2024/01/29 03:27:43;;;;;;;0.57;0.57;;;;;;;-145.69;38.54;52293.88;5136499;27;20224;-79
2024/01/29 03:30:13;;;;;;;0.50;0.50;;;;;;;-145.69;38.93;52280.00;5136674;27;20208;-79
2024/01/29 03:32:42;;;;;;;0.50;0.50;;;;;;;-145.69;38.45;52282.00;5136802;27;20228;-79
2024/01/29 03:35:12;;;;;;;0.80;0.80;;;;;;;-145.69;38.49;52309.72;5136295;27;20228;-78
2024/01/29 03:37:44;;;;;;;0.60;0.60;;;;;;;-145.69;38.01;52260.22;5136224;27;20670;-78
2024/01/29 03:40:14;;;;;;;0.93;0.70;;;;;;;-145.69;38.34;52303.78;5136166;27;20205;-79
2024/01/29 03:42:45;;;;;;;0.50;0.50;;;;;;;-145.69;38.22;52282.00;5136108;27;20193;-79
2024/01/29 03:45:12;;;;;;;3.10;0.50;;;;;;;-145.69;38.18;52305.75;5135669;27;20555;-79
2024/01/29 03:47:40;;;;;;;0.40;0.40;;;;;;;-145.69;38.26;52289.91;5136099;27;20674;-78
2024/01/29 03:50:11;;;;;;;0.40;0.40;;;;;;;-145.69;38.66;52280.00;5135937;27;20319;-78
2024/01/29 03:52:38;;;;;;;1.80;0.70;;;;;;;-145.69;37.06;52262.19;5136142;27;20630;-78
2024/01/29 03:55:10;;;;;;;0.73;0.60;;;;;;;-145.69;37.01;52226.53;5135761;27;20204;-78
2024/01/29 03:57:38;;;;;;;0.60;0.60;;;;;;;-145.69;37.65;52274.06;5135961;27;20269;-78
2024/01/29 04:00:11;;;;;;;0.50;0.50;;;;;;;-145.69;36.95;52266.16;5135992;27;20200;-78
2024/01/29 04:02:46;;;;;;;0.57;0.57;;;;;;;-145.69;36.19;52282.00;5136043;27;20655;-78
2024/01/29 04:05:15;;;;;;;0.70;0.70;;;;;;;-145.69;37.41;52272.09;5135797;27;20220;-78
2024/01/29 04:07:46;;;;;;;0.70;0.70;;;;;;;-145.69;36.93;52293.88;5136026;27;20197;-79
2024/01/29 04:10:12;;;;;;;0.60;0.60;;;;;;;-145.69;36.96;52280.00;5135001;27;20196;-79
2024/01/29 04:12:39;;;;;;;5.43;0.87;;;;;;;-145.69;36.39;52270.13;5135759;27;20193;-79
2024/01/29 04:15:06;;;;;;;1.30;0.70;;;;;;;-145.69;37.24;52244.38;5135304;27;20668;-79
2024/01/29 04:17:35;;;;;;;1.73;0.70;;;;;;;-145.69;37.55;52270.13;5135738;27;20200;-79
2024/01/29 04:20:05;;;;;;;0.60;0.60;;;;;;;-145.69;36.94;52282.00;5135387;27;20231;-80
2024/01/29 04:22:34;;;;;;;4.00;0.60;;;;;;;-145.69;38.32;52282.00;5135532;27;20201;-81
2024/01/29 04:25:05;;;;;;;0.50;0.50;;;;;;;-145.69;38.78;52274.06;5135711;27;20197;-80
2024/01/29 04:27:32;;;;;;;0.60;0.60;;;;;;;-145.69;37.80;52264.16;5135432;27;20197;-80
2024/01/29 04:29:58;;;;;;;0.60;0.60;;;;;;;-145.69;37.99;52266.16;5135125;27;20228;-80
2024/01/29 04:32:25;;;;;;;1.90;0.73;;;;;;;-145.69;38.61;52244.38;5135374;27;20215;-79
2024/01/29 04:34:52;;;;;;;0.57;0.57;;;;;;;-145.69;38.36;52293.88;5134959;27;20204;-79
2024/01/29 04:37:18;;;;;;;0.77;0.77;;;;;;;-145.69;38.19;52283.97;5135539;27;20196;-79
2024/01/29 04:39:46;;;;;;;0.60;0.50;;;;;;;-145.69;37.47;52317.66;5135249;27;20197;-80
2024/01/29 04:42:13;;;;;;;2.10;0.50;;;;;;;-145.69;38.13;52240.41;5134813;27;20196;-78
2024/01/29 04:44:39;;;;;;;0.50;0.50;;;;;;;-145.69;37.58;52285.97;5135045;27;20196;-79
2024/01/29 04:47:07;;;;;;;0.60;0.60;;;;;;;-145.69;37.68;52282.00;5135064;27;20208;-79
2024/01/29 04:49:34;;;;;;;0.77;0.70;;;;;;;-145.69;37.47;52282.00;5134836;27;20224;-79
2024/01/29 04:52:00;;;;;;;2.70;0.80;;;;;;;-145.69;37.82;52260.22;5135179;27;20200;-80
2024/01/29 04:54:27;;;;;;;4.43;0.63;;;;;;;-145.69;37.43;52262.19;5133917;27;20197;-79
2024/01/29 04:56:54;;;;;;;2.07;0.70;;;;;;;-145.69;37.63;52270.13;5134567;27;20197;-79
2024/01/29 04:59:21;;;;;;;1.27;0.70;;;;;;;-145.69;36.95;52283.97;5134314;27;20203;-79
2024/01/29 05:01:47;;;;;;;0.90;0.73;;;;;;;-145.69;36.56;52270.13;5134855;27;20567;-80
2024/01/29 05:04:14;;;;;;;5.70;0.80;;;;;;;-145.69;36.50;52268.13;5134553;27;20678;-79
2024/01/29 05:06:41;;;;;;;0.87;0.67;;;;;;;-145.69;37.03;52278.03;5134352;27;20696;-79
2024/01/29 05:09:09;;;;;;;0.73;0.70;;;;;;;-145.69;36.90;52274.06;5134500;27;20220;-79
2024/01/29 05:11:37;;;;;;;1.37;0.57;;;;;;;-145.69;36.73;52274.06;5134309;27;20197;-80
2024/01/29 05:14:04;;;;;;;0.60;0.60;;;;;;;-145.69;37.09;52262.19;5133755;27;20636;-79
2024/01/29 05:16:32;;;;;;;1.00;0.60;;;;;;;-145.69;37.08;52274.06;5133662;27;20193;-80
2024/01/29 05:18:59;;;;;;;0.50;0.50;;;;;;;-145.69;37.37;52278.03;5133831;27;20192;-80
2024/01/29 05:21:25;;;;;;;3.20;0.80;;;;;;;-145.69;37.52;52266.16;5134415;27;20207;-79
2024/01/29 05:23:52;;;;;;;0.70;0.70;;;;;;;-145.69;37.62;52285.97;5134340;27;20205;-79
2024/01/29 05:26:18;;;;;;;2.87;0.70;;;;;;;-145.69;37.76;52246.34;5133996;27;20662;-79
2024/01/29 05:28:45;;;;;;;1.63;0.87;;;;;;;-145.69;38.37;52256.25;5134011;27;20591;-79
2024/01/29 05:31:14;;;;;;;0.77;0.60;;;;;;;-145.69;37.96;52234.47;5134034;27;20199;-79
2024/01/29 05:33:40;;;;;;;2.23;0.93;;;;;;;-145.69;37.91;52258.22;5134056;27;20207;-79
2024/01/29 05:36:08;;;;;;;1.33;0.70;;;;;;;-145.69;37.99;52242.38;5134358;27;20567;-79
2024/01/29 05:38:35;;;;;;;1.43;0.77;;;;;;;-145.69;37.53;52274.06;5134360;27;20200;-79
2024/01/29 05:41:01;;;;;;;0.63;0.63;;;;;;;-145.69;37.50;52258.22;5134112;27;20189;-79
2024/01/29 05:43:28;;;;;;;1.23;1.13;;;;;;;-145.69;38.37;52262.19;5133957;27;20554;-78
2024/01/29 05:45:55;;;;;;;2.73;0.70;;;;;;;-145.69;38.45;52293.88;5133627;27;20222;-79
2024/01/29 05:48:22;;;;;;;2.40;0.73;;;;;;;-145.69;38.17;52254.28;5133835;27;20203;-79
2024/01/29 05:50:49;;;;;;;4.83;1.10;;;;;;;-145.69;38.17;52254.28;5133844;27;20228;-79
2024/01/29 05:53:19;;;;;;;2.97;0.77;;;;;;;-145.69;38.59;52285.97;5134099;27;20196;-79
2024/01/29 05:55:46;;;;;;;3.10;0.80;;;;;;;-145.69;39.00;52276.06;5133878;27;20566;-79
2024/01/29 05:58:12;;;;;;;1.17;0.60;;;;;;;-145.69;38.04;52266.16;5133664;27;20193;-80
2024/01/29 06:00:39;;;;;;;5.20;1.10;;;;;;;-145.69;38.82;52254.28;5133508;27;20539;-79
2024/01/29 06:03:05;;;;;;;2.97;0.77;;;;;;;-145.69;39.19;52242.38;5133649;27;20541;-78
2024/01/29 06:05:33;;;;;;;8.70;0.87;;;;;;;-145.69;39.06;52285.97;5133570;27;20197;-79
2024/01/29 06:07:59;;;;;;;0.60;0.60;;;;;;;-145.69;38.60;52282.00;5132782;27;20277;-78
2024/01/29 06:10:26;;;;;;;0.63;0.60;;;;;;;-145.69;38.48;52270.13;5132916;27;20801;-79
2024/01/29 06:12:53;;;;;;;2.83;0.80;;;;;;;-145.69;39.21;52252.28;5133681;27;20193;-79
2024/01/29 06:15:19;;;;;;;4.33;0.90;;;;;;;-145.69;38.35;52264.16;5133180;27;20801;-79
2024/01/29 06:17:46;;;;;;;1.80;0.70;;;;;;;-145.69;38.96;52274.06;5133427;27;20287;-80
2024/01/29 06:20:13;;;;;;;0.90;0.80;;;;;;;-145.69;40.53;52266.16;5133246;27;20200;-79
2024/01/29 06:22:40;;;;;;;2.83;0.70;;;;;;;-145.69;40.59;52268.13;5133205;27;20246;-79
2024/01/29 06:25:07;;;;;;;1.70;0.50;;;;;;;-145.69;40.77;52278.03;5133713;27;20208;-79
2024/01/29 06:27:34;;;;;;;1.67;1.00;;;;;;;-145.69;40.88;52278.03;5133513;27;20205;-79
2024/01/29 06:30:00;;;;;;;2.67;0.90;;;;;;;-145.69;39.88;52270.13;5133202;27;20256;-79
2024/01/29 06:32:27;;;;;;;1.77;0.90;;;;;;;-145.69;40.16;52268.13;5133334;28;20288;-79
2024/01/29 06:34:56;;;;;;;2.67;0.90;;;;;;;-145.69;39.39;52274.06;5132762;28;20650;-79
2024/01/29 06:37:23;;;;;;;2.10;1.00;;;;;;;-145.69;38.18;52262.19;5133216;27;20249;-80
2024/01/29 06:39:51;;;;;;;5.93;0.80;;;;;;;-145.69;38.75;52258.22;5133216;27;20291;-79
2024/01/29 06:42:18;;;;;;;1.20;0.77;;;;;;;-145.69;37.53;52254.28;5133294;27;20726;-79
2024/01/29 06:44:44;;;;;;;1.27;0.90;;;;;;;-145.69;38.64;52303.78;5124773;27;20194;-79
2024/01/29 06:47:11;;;;;;;6.23;0.70;;;;;;;-145.69;38.86;52266.16;5112698;28;20199;-80
2024/01/29 06:49:37;;;;;;;0.80;0.70;;;;;;;-145.69;38.94;52270.13;5120473;28;20220;-79
2024/01/29 06:52:04;;;;;;;2.50;1.00;;;;;;;-145.69;38.31;52268.13;5133048;27;20192;-79
2024/01/29 06:54:30;;;;;;;1.73;0.70;;;;;;;-145.69;38.88;52234.47;5133214;28;20197;-79
2024/01/29 06:56:58;;;;;;;3.85;0.80;;;;;;;-145.69;38.74;52250.31;5132382;28;20441;-80
2024/01/29 06:59:26;;;;;;;3.90;0.90;;;;;;;-145.69;37.98;52248.34;5133139;28;20193;-80
2024/01/29 07:01:53;;;;;;;8.87;1.03;;;;;;;-145.69;38.71;52252.28;5132947;27;20239;-80
2024/01/29 07:04:20;;;;;;;1.20;0.80;;;;;;;-145.69;39.11;52262.19;5132976;27;20205;-79
2024/01/29 07:06:46;;;;;;;0.70;0.70;;;;;;;-145.69;39.50;52276.06;5133215;27;20197;-79
2024/01/29 07:09:13;;;;;;;0.97;0.80;;;;;;;-145.69;39.42;52297.84;5133068;28;20232;-79
2024/01/29 07:11:40;;;;;;;1.10;0.90;;;;;;;-145.69;40.10;52319.63;5133189;27;20250;-79
2024/01/29 07:14:08;;;;;;;2.93;0.60;;;;;;;-145.69;40.96;52270.13;5132212;27;20208;-79
2024/01/29 07:16:34;;;;;;;2.90;0.87;;;;;;;-145.69;41.72;52254.28;5132998;27;20202;-78
2024/01/29 07:19:01;;;;;;;1.53;0.60;;;;;;;-145.69;41.09;52254.28;5135205;27;20199;-80
2024/01/29 07:21:27;;;;;;;0.67;0.60;;;;;;;-145.69;40.83;52254.28;5136060;27;20643;-79
2024/01/29 07:23:56;;;;;;;2.30;0.60;;;;;;;-145.69;40.49;52289.91;5136764;27;20235;-79
2024/01/29 07:26:24;;;;;;;0.90;0.70;;;;;;;-145.69;40.03;52285.97;5136588;27;20197;-79
2024/01/29 07:28:50;;;;;;;3.57;0.70;;;;;;;-145.69;40.63;52270.13;5136444;27;20245;-79
2024/01/29 07:31:18;;;;;;;0.87;0.60;;;;;;;-145.69;39.11;52272.09;5136630;27;20212;-79
2024/01/29 07:33:45;;;;;;;3.57;0.80;;;;;;;-145.69;40.16;52266.16;5136669;27;20200;-80
2024/01/29 07:36:13;;;;;;;1.30;0.63;;;;;;;-145.69;39.13;52266.16;5136396;27;20277;-79
2024/01/29 07:38:40;;;;;;;2.53;0.70;;;;;;;-145.69;38.23;52278.03;5136517;27;20197;-79
2024/01/29 07:41:06;;;;;;;5.43;0.93;;;;;;;-145.69;38.54;52258.22;5136173;27;20197;-80
2024/01/29 07:43:33;;;;;;;2.73;0.60;;;;;;;-145.69;38.55;52268.13;5136340;27;20562;-81
2024/01/29 07:45:59;;;;;;;2.13;0.90;;;;;;;-145.69;39.99;52212.69;5136476;27;20208;-80
2024/01/29 07:48:27;;;;;;;1.80;0.90;;;;;;;-145.69;39.34;52260.22;5135969;27;20192;-80
2024/01/29 07:50:54;;;;;;;2.37;0.70;;;;;;;-145.69;40.03;52234.47;5135745;27;20248;-80
2024/01/29 07:53:20;;;;;;;0.80;0.80;;;;;;;-145.69;41.72;52238.44;5135985;27;20211;-80
2024/01/29 07:55:47;;;;;;;1.57;0.50;;;;;;;-145.69;40.79;52240.41;5136280;27;20200;-80
2024/01/29 07:58:13;;;;;;;0.60;0.60;;;;;;;-145.69;40.55;52234.47;5136047;27;20197;-80
2024/01/29 08:00:40;;;;;;;1.00;0.90;;;;;;;-145.69;40.52;52256.25;5135857;27;20204;-80
2024/01/29 08:03:07;;;;;;;1.20;0.67;;;;;;;-145.69;41.29;52242.38;5136001;27;20200;-80
2024/01/29 08:05:36;;;;;;;0.67;0.60;;;;;;;-145.69;40.28;52258.22;5135605;27;20192;-79
2024/01/29 08:08:02;;;;;;;4.80;0.70;;;;;;;-145.69;40.26;52224.56;5135975;27;20249;-79
2024/01/29 08:10:29;;;;;;;0.60;0.60;;;;;;;-145.69;41.16;52230.50;5135653;27;20228;-80
2024/01/29 08:12:55;;;;;;;2.20;0.80;;;;;;;-145.69;39.63;52238.44;5135762;27;20201;-81
2024/01/29 08:15:23;;;;;;;3.13;0.90;;;;;;;-145.69;40.18;52238.44;5135302;27;20200;-80
2024/01/29 08:17:50;;;;;;;0.70;0.70;;;;;;;-145.69;39.45;52262.19;5136092;27;20200;-80
2024/01/29 08:20:16;;;;;;;1.07;0.70;;;;;;;-145.69;39.04;52252.28;5135445;27;20200;-80
2024/01/29 08:22:44;;;;;;;1.43;0.90;;;;;;;-145.69;38.64;52234.47;5135692;27;20651;-79
2024/01/29 08:25:10;;;;;;;1.23;0.70;;;;;;;-145.69;39.13;52226.53;5135643;27;20193;-80
2024/01/29 08:27:39;;;;;;;5.80;0.90;;;;;;;-145.69;38.01;52238.44;5134762;27;20189;-80
2024/01/29 08:30:07;;;;;;;1.13;0.90;;;;;;;-145.69;37.60;52214.66;5134454;27;20234;-81
2024/01/29 08:32:33;;;;;;;3.90;0.70;;;;;;;-145.69;37.32;52274.06;5135796;27;20288;-79
2024/01/29 08:35:00;;;;;;;2.97;0.70;;;;;;;-145.69;37.00;52242.38;5134903;27;20223;-80
2024/01/29 08:37:27;;;;;;;3.20;1.30;;;;;;;-145.69;37.15;52210.72;5135469;27;20197;-80
2024/01/29 08:39:55;;;;;;;2.03;0.80;;;;;;;-145.69;36.78;52202.78;5128357;27;20205;-81
2024/01/29 08:42:22;;;;;;;2.90;0.70;;;;;;;-145.69;36.68;52250.31;5113682;28;20438;-80
2024/01/29 08:44:48;;;;;;;1.73;0.70;;;;;;;-145.69;35.96;52226.53;5114649;28;20747;-80
2024/01/29 08:47:15;;;;;;;2.17;0.80;;;;;;;-145.69;35.93;52226.53;5118422;27;20197;-80
2024/01/29 08:49:51;;;;;;;2.77;0.70;;;;;;;-145.69;35.52;52226.53;5135018;27;20232;-80
2024/01/29 08:52:18;;;;;;;3.33;0.83;;;;;;;-145.69;35.54;52171.09;5134977;27;20200;-81
2024/01/29 08:54:45;;;;;;;4.60;0.70;;;;;;;-145.69;35.78;52210.72;5134769;27;20193;-80
2024/01/29 08:57:12;;;;;;;0.60;0.60;;;;;;;-145.69;35.72;52190.91;5134930;27;20203;-81
2024/01/29 08:59:39;;;;;;;1.57;0.60;;;;;;;-145.69;35.35;52232.50;5134820;27;20197;-81
2024/01/29 09:02:08;;;;;;;3.33;0.60;;;;;;;-145.69;35.70;52202.78;5134687;27;20197;-79
2024/01/29 09:04:34;;;;;;;3.77;0.80;;;;;;;-145.69;35.49;52190.91;5116268;27;20197;-79
2024/01/29 09:07:01;;;;;;;2.33;0.70;;;;;;;-145.69;35.47;52226.53;5134789;27;20253;-79
2024/01/29 09:09:27;;;;;;;1.43;0.80;;;;;;;-145.69;35.24;52194.88;5134341;27;20702;-79
2024/01/29 09:11:54;;;;;;;3.97;0.70;;;;;;;-145.69;35.11;52182.97;5134743;27;20201;-78
2024/01/29 09:14:24;;;;;;;1.80;0.73;;;;;;;-145.69;35.12;52163.19;5134485;27;20197;-79
2024/01/29 09:16:51;;;;;;;0.77;0.77;;;;;;;-145.69;35.21;52198.81;5134681;27;20200;-79
2024/01/29 09:19:26;;;;;;;1.47;1.00;;;;;;;-145.69;34.10;52196.84;5134738;27;20288;-79
2024/01/29 09:21:53;;;;;;;1.23;0.90;;;;;;;-145.69;34.21;52200.81;5134431;27;20192;-79
2024/01/29 09:24:19;;;;;;;1.03;0.80;;;;;;;-145.69;33.72;52194.88;5134423;27;20643;-79
2024/01/29 09:26:46;;;;;;;1.33;0.80;;;;;;;-145.69;33.78;52194.88;5134204;27;20197;-78
2024/01/29 09:29:13;;;;;;;9.57;1.07;;;;;;;-145.69;34.75;52224.56;5131748;27;20193;-79
2024/01/29 09:31:42;;;;;;;6.60;1.50;;;;;;;-145.69;35.34;52190.91;5134344;27;20253;-80
2024/01/29 09:34:08;;;;;;;4.83;1.83;;;;;;;-145.69;35.47;52161.19;5133717;27;20276;-80
2024/01/29 09:36:35;;;;;;;7.10;2.90;;;;;;;-145.69;36.08;52179.03;5134061;27;20546;-79
2024/01/29 09:39:01;;;;;;;7.40;3.00;;;;;;;-145.69;36.15;52179.03;5133975;27;20197;-78
2024/01/29 09:41:33;;;;;;;9.70;3.90;;;;;;;-145.69;36.27;52173.09;5133696;27;20299;-78
2024/01/29 09:44:02;;;;;;;5.20;2.07;;;;;;;-145.69;36.68;52171.09;5133960;27;20257;-81
2024/01/29 09:46:29;;;;;;;8.13;2.17;;;;;;;-145.69;37.13;52179.03;5133960;27;20284;-79
2024/01/29 09:48:59;;;;;;;3.35;1.73;;;;;;;-145.69;36.47;52200.81;5133379;27;20193;-79
2024/01/29 09:51:27;;;;;;;4.17;2.40;;;;;;;-145.69;36.70;52175.06;5133856;27;20587;-80
2024/01/29 09:53:55;;;;;;;5.37;2.10;;;;;;;-145.69;36.79;52202.78;5134129;27;20284;-81
2024/01/29 09:56:22;;;;;;;5.60;2.40;;;;;;;-145.69;36.99;52163.19;5133670;27;20202;-79
2024/01/29 09:58:48;;;;;;;4.73;2.40;;;;;;;-145.69;36.78;52179.03;5133809;27;20207;-81
2024/01/29 10:01:18;;;;;;;4.78;2.47;;;;;;;-145.69;37.04;52141.41;5134089;27;20651;-79
2024/01/29 10:03:45;;;;;;;7.75;2.38;;;;;;;-145.69;37.31;52184.97;5133895;27;20300;-80
2024/01/29 10:06:13;;;;;;;5.20;1.90;;;;;;;-145.69;35.88;52190.91;5133631;27;20207;-79
2024/01/29 10:08:40;;;;;;;2.13;1.20;;;;;;;-145.69;33.66;52206.75;5133692;27;20197;-81
2024/01/29 10:11:07;;;;;;;2.72;1.20;;;;;;;-145.69;34.00;52157.25;5133327;27;20220;-82
2024/01/29 10:13:34;;;;;;;4.68;1.13;;;;;;;-145.69;32.12;52151.28;5133605;27;20226;-82
2024/01/29 10:16:01;;;;;;;2.75;1.40;;;;;;;-145.69;31.98;52159.22;5133530;27;20253;-82
2024/01/29 10:18:27;;;;;;;1.70;0.93;;;;;;;-145.69;32.20;52167.13;5133621;27;20201;-82
2024/01/29 10:21:01;;;;;;;1.45;1.00;;;;;;;-145.69;30.51;52135.47;5133774;27;20196;-82
2024/01/29 10:23:29;;;;;;;1.33;0.70;;;;;;;-145.69;30.60;52159.22;5133083;27;20232;-82
2024/01/29 10:25:56;;;;;;;1.33;0.70;;;;;;;-145.69;30.66;52139.41;5133640;27;20203;-83
2024/01/29 10:28:23;;;;;;;1.35;0.73;;;;;;;-145.69;30.82;52125.56;5133575;27;20196;-82
2024/01/29 10:30:50;;;;;;;2.70;0.90;;;;;;;-145.69;30.73;52151.28;5133152;27;20220;-82
2024/01/29 10:33:18;;;;;;;2.22;1.15;;;;;;;-145.69;30.57;52167.13;5133442;28;20185;-83
2024/01/29 10:35:45;;;;;;;1.13;0.82;;;;;;;-145.69;30.45;52149.31;5132804;28;20197;-82
2024/01/29 10:38:15;;;;;;;0.98;0.80;;;;;;;-145.69;30.26;52135.47;5133001;27;20192;-81
2024/01/29 10:40:45;;;;;;;1.08;0.88;;;;;;;-145.69;30.38;52127.53;5133944;27;20287;-82
2024/01/29 10:43:17;;;;;;;1.23;0.77;;;;;;;-145.69;30.60;52147.34;5133331;28;20284;-81
2024/01/29 10:45:47;;;;;;;1.85;1.00;;;;;;;-145.69;30.72;52121.59;5128848;27;20200;-81
2024/01/29 10:48:17;;;;;;;1.60;1.00;;;;;;;-145.69;31.03;52127.53;5132819;28;20201;-82
2024/01/29 10:50:47;;;;;;;3.33;0.85;;;;;;;-145.69;31.05;52135.47;5133191;28;20298;-82
2024/01/29 10:53:15;;;;;;;1.45;1.05;;;;;;;-145.69;30.38;52109.72;5133865;27;20603;-81
2024/01/29 10:55:44;;;;;;;2.05;1.02;;;;;;;-145.69;30.50;52087.94;5136983;27;20797;-81
2024/01/29 10:58:13;;;;;;;2.10;1.30;;;;;;;-145.69;30.59;52119.63;5136602;27;20655;-81
2024/01/29 11:00:40;;;;;;;1.88;1.00;;;;;;;-145.69;30.66;52135.47;5137201;27;20207;-81
2024/01/29 11:03:09;;;;;;;1.85;1.02;;;;;;;-145.69;30.34;52151.28;5137165;27;20666;-81
2024/01/29 11:05:39;;;;;;;1.25;0.98;;;;;;;-145.69;30.53;52123.56;5136705;27;20204;-82
2024/01/29 11:08:11;;;;;;;1.60;1.08;;;;;;;-145.69;30.20;52127.53;5136745;27;20197;-82
2024/01/29 11:10:38;;;;;;;3.83;1.10;;;;;;;-145.69;30.35;52127.53;5136569;27;20300;-78
2024/01/29 11:13:09;;;;;;;1.65;1.05;;;;;;;-145.69;30.32;52083.97;5135727;27;20482;-79
2024/01/29 11:15:43;;;;;;;1.17;0.98;;;;;;;-145.69;30.38;52123.56;5136820;27;20242;-78
2024/01/29 11:18:13;;;;;;;1.48;1.10;;;;;;;-145.69;30.52;52135.47;5137045;27;20257;-81
2024/01/29 11:20:41;;;;;;;2.25;0.90;;;;;;;-145.69;30.39;52119.63;5136855;27;20196;-80